CYVP

Kuujjuaq Airport

Kuujjuaq, Quebec, Canada
METAR CYVP 201800Z 30008KT 15SM BKN240 M04/M13 A3029 RMK CI7 SLP263
Observed Flight Rules
Apr-20 @ 18:00 UTC (38 minutes ago) Visual Flight Rules
Wind Visibility Clouds
300° at 8 knots 15 miles
  • Broken at 24,000' AGL
Temperatures Readings
Current -4°C / 25°F
Dewpoint -13°C / 9°F
Humidity 50%
Altimeter 30.29" Hg
Pressure 1026.3 hPa
Elevation 60
METAR CYVP 201800Z 30008KT 15SM BKN240 M04/M13 A3029 RMK CI7 SLP263
Observed Flight Rules
Apr-20 @ 18:00 UTC
(38 minutes ago)
VFR
Wind Visibility
300° at 8 knots 15 miles
Clouds
  • Broken at 24,000' AGL
Temperature Dewpoint
-4°C / 25°F -13°C / 9°F
Humidity Altimeter Pressure
50% 30.29" Hg 1026.3 hPa